sensor_id;sensor_type;location;lat;lon;timestamp;P1;durP1;ratioP1;P2;durP2;ratioP2
6723;SDS011;3399;52.530;13.304;2023-02-01T00:00:33;14.87;;;4.43;;
6723;SDS011;3399;52.530;13.304;2023-02-01T00:02:59;13.97;;;3.60;;
6723;SDS011;3399;52.530;13.304;2023-02-01T00:05:25;12.87;;;3.33;;
6723;SDS011;3399;52.530;13.304;2023-02-01T00:07:50;12.60;;;3.70;;
6723;SDS011;3399;52.530;13.304;2023-02-01T00:10:16;26.23;;;4.60;;
6723;SDS011;3399;52.530;13.304;2023-02-01T00:12:42;14.93;;;3.60;;
6723;SDS011;3399;52.530;13.304;2023-02-01T00:15:08;21.30;;;5.67;;
6723;SDS011;3399;52.530;13.304;2023-02-01T00:17:33;13.03;;;4.10;;
6723;SDS011;3399;52.530;13.304;2023-02-01T00:19:59;14.13;;;4.00;;
6723;SDS011;3399;52.530;13.304;2023-02-01T00:22:24;15.80;;;5.03;;
6723;SDS011;3399;52.530;13.304;2023-02-01T00:24:50;20.80;;;4.70;;
6723;SDS011;3399;52.530;13.304;2023-02-01T00:27:16;8.23;;;3.80;;
6723;SDS011;3399;52.530;13.304;2023-02-01T00:29:45;10.93;;;2.97;;
6723;SDS011;3399;52.530;13.304;2023-02-01T00:32:10;9.40;;;3.10;;
6723;SDS011;3399;52.530;13.304;2023-02-01T00:34:36;11.70;;;4.00;;
6723;SDS011;3399;52.530;13.304;2023-02-01T00:37:02;16.03;;;4.03;;
6723;SDS011;3399;52.530;13.304;2023-02-01T00:39:27;8.27;;;2.90;;
6723;SDS011;3399;52.530;13.304;2023-02-01T00:41:53;14.70;;;3.13;;
6723;SDS011;3399;52.530;13.304;2023-02-01T00:44:18;13.93;;;3.93;;
6723;SDS011;3399;52.530;13.304;2023-02-01T00:46:43;13.97;;;3.03;;
6723;SDS011;3399;52.530;13.304;2023-02-01T00:49:09;7.07;;;1.93;;
6723;SDS011;3399;52.530;13.304;2023-02-01T00:51:34;8.80;;;2.50;;
6723;SDS011;3399;52.530;13.304;2023-02-01T00:54:00;13.13;;;2.23;;
6723;SDS011;3399;52.530;13.304;2023-02-01T00:56:25;15.27;;;3.23;;
6723;SDS011;3399;52.530;13.304;2023-02-01T00:58:52;13.10;;;3.30;;
6723;SDS011;3399;52.530;13.304;2023-02-01T01:01:19;12.33;;;3.13;;
6723;SDS011;3399;52.530;13.304;2023-02-01T01:03:47;9.97;;;3.30;;
6723;SDS011;3399;52.530;13.304;2023-02-01T01:06:19;7.93;;;3.43;;
6723;SDS011;3399;52.530;13.304;2023-02-01T01:08:47;17.60;;;3.13;;
6723;SDS011;3399;52.530;13.304;2023-02-01T01:11:14;8.53;;;1.70;;
6723;SDS011;3399;52.530;13.304;2023-02-01T01:13:42;10.97;;;2.47;;
6723;SDS011;3399;52.530;13.304;2023-02-01T01:16:08;7.47;;;3.17;;
6723;SDS011;3399;52.530;13.304;2023-02-01T01:18:35;12.43;;;3.43;;
6723;SDS011;3399;52.530;13.304;2023-02-01T01:21:01;5.47;;;2.47;;
6723;SDS011;3399;52.530;13.304;2023-02-01T01:23:29;4.67;;;2.33;;
6723;SDS011;3399;52.530;13.304;2023-02-01T01:25:55;7.77;;;2.40;;
6723;SDS011;3399;52.530;13.304;2023-02-01T01:28:20;11.73;;;3.20;;
6723;SDS011;3399;52.530;13.304;2023-02-01T01:30:46;11.30;;;3.33;;
6723;SDS011;3399;52.530;13.304;2023-02-01T01:33:11;6.37;;;2.70;;
6723;SDS011;3399;52.530;13.304;2023-02-01T01:35:37;10.37;;;3.70;;
6723;SDS011;3399;52.530;13.304;2023-02-01T01:38:03;13.93;;;4.73;;
6723;SDS011;3399;52.530;13.304;2023-02-01T01:40:29;15.30;;;2.70;;
6723;SDS011;3399;52.530;13.304;2023-02-01T01:42:55;9.87;;;2.70;;
6723;SDS011;3399;52.530;13.304;2023-02-01T01:45:29;10.97;;;3.13;;
6723;SDS011;3399;52.530;13.304;2023-02-01T01:48:00;14.20;;;2.07;;
6723;SDS011;3399;52.530;13.304;2023-02-01T01:50:31;5.47;;;2.63;;
6723;SDS011;3399;52.530;13.304;2023-02-01T01:53:02;9.17;;;2.57;;
6723;SDS011;3399;52.530;13.304;2023-02-01T01:55:31;6.70;;;2.77;;
6723;SDS011;3399;52.530;13.304;2023-02-01T01:58:02;10.97;;;2.50;;
6723;SDS011;3399;52.530;13.304;2023-02-01T02:00:31;14.97;;;3.33;;
6723;SDS011;3399;52.530;13.304;2023-02-01T02:03:03;16.10;;;4.33;;
6723;SDS011;3399;52.530;13.304;2023-02-01T02:05:36;13.07;;;3.03;;
6723;SDS011;3399;52.530;13.304;2023-02-01T02:08:03;15.27;;;2.80;;
6723;SDS011;3399;52.530;13.304;2023-02-01T02:10:28;16.90;;;3.43;;
6723;SDS011;3399;52.530;13.304;2023-02-01T02:13:14;10.53;;;3.00;;
6723;SDS011;3399;52.530;13.304;2023-02-01T02:15:57;17.07;;;4.03;;
6723;SDS011;3399;52.530;13.304;2023-02-01T02:18:34;16.93;;;2.80;;
6723;SDS011;3399;52.530;13.304;2023-02-01T02:23:48;13.87;;;3.67;;
6723;SDS011;3399;52.530;13.304;2023-02-01T02:26:39;9.37;;;2.73;;
6723;SDS011;3399;52.530;13.304;2023-02-01T02:32:41;9.13;;;2.67;;
6723;SDS011;3399;52.530;13.304;2023-02-01T02:35:16;12.87;;;4.13;;
6723;SDS011;3399;52.530;13.304;2023-02-01T02:38:01;7.30;;;2.40;;
6723;SDS011;3399;52.530;13.304;2023-02-01T02:40:58;18.17;;;3.33;;
6723;SDS011;3399;52.530;13.304;2023-02-01T02:43:46;10.30;;;2.50;;
6723;SDS011;3399;52.530;13.304;2023-02-01T02:46:37;21.80;;;3.57;;
6723;SDS011;3399;52.530;13.304;2023-02-01T02:49:29;16.50;;;3.17;;
6723;SDS011;3399;52.530;13.304;2023-02-01T02:52:35;12.50;;;3.63;;
6723;SDS011;3399;52.530;13.304;2023-02-01T02:55:22;12.10;;;3.90;;
6723;SDS011;3399;52.530;13.304;2023-02-01T02:57:51;9.60;;;2.87;;
6723;SDS011;3399;52.530;13.304;2023-02-01T03:00:36;11.50;;;3.57;;
6723;SDS011;3399;52.530;13.304;2023-02-01T03:03:21;9.70;;;3.83;;
6723;SDS011;3399;52.530;13.304;2023-02-01T03:06:08;12.17;;;2.50;;
6723;SDS011;3399;52.530;13.304;2023-02-01T03:08:40;14.10;;;3.67;;
6723;SDS011;3399;52.530;13.304;2023-02-01T03:11:10;16.37;;;4.03;;
6723;SDS011;3399;52.530;13.304;2023-02-01T03:13:42;16.80;;;3.60;;
6723;SDS011;3399;52.530;13.304;2023-02-01T03:16:21;10.30;;;2.70;;
6723;SDS011;3399;52.530;13.304;2023-02-01T03:18:54;16.57;;;4.53;;
6723;SDS011;3399;52.530;13.304;2023-02-01T03:21:44;14.90;;;3.50;;
6723;SDS011;3399;52.530;13.304;2023-02-01T03:24:21;12.70;;;3.00;;
6723;SDS011;3399;52.530;13.304;2023-02-01T03:26:58;11.13;;;3.37;;
6723;SDS011;3399;52.530;13.304;2023-02-01T03:29:39;9.80;;;2.73;;
6723;SDS011;3399;52.530;13.304;2023-02-01T03:32:12;11.20;;;3.60;;
6723;SDS011;3399;52.530;13.304;2023-02-01T03:34:38;12.77;;;3.40;;
6723;SDS011;3399;52.530;13.304;2023-02-01T03:37:06;10.93;;;2.37;;
6723;SDS011;3399;52.530;13.304;2023-02-01T03:39:36;9.63;;;2.70;;
6723;SDS011;3399;52.530;13.304;2023-02-01T03:42:13;14.20;;;3.87;;
6723;SDS011;3399;52.530;13.304;2023-02-01T03:44:50;12.27;;;3.87;;
6723;SDS011;3399;52.530;13.304;2023-02-01T03:47:25;10.60;;;2.93;;
6723;SDS011;3399;52.530;13.304;2023-02-01T03:50:07;14.87;;;3.30;;
6723;SDS011;3399;52.530;13.304;2023-02-01T03:55:22;21.30;;;3.87;;
6723;SDS011;3399;52.530;13.304;2023-02-01T03:58:12;16.47;;;4.47;;
6723;SDS011;3399;52.530;13.304;2023-02-01T04:00:40;20.73;;;5.10;;
6723;SDS011;3399;52.530;13.304;2023-02-01T04:03:08;13.33;;;3.33;;
6723;SDS011;3399;52.530;13.304;2023-02-01T04:05:34;8.90;;;4.27;;
6723;SDS011;3399;52.530;13.304;2023-02-01T04:08:00;13.00;;;3.53;;
6723;SDS011;3399;52.530;13.304;2023-02-01T04:10:25;19.20;;;3.77;;
6723;SDS011;3399;52.530;13.304;2023-02-01T04:12:51;20.80;;;3.60;;
6723;SDS011;3399;52.530;13.304;2023-02-01T04:15:17;19.50;;;3.90;;
6723;SDS011;3399;52.530;13.304;2023-02-01T04:17:42;10.30;;;3.57;;
6723;SDS011;3399;52.530;13.304;2023-02-01T04:20:08;13.87;;;3.50;;
6723;SDS011;3399;52.530;13.304;2023-02-01T04:22:34;14.20;;;5.77;;
6723;SDS011;3399;52.530;13.304;2023-02-01T04:25:00;15.83;;;3.63;;
6723;SDS011;3399;52.530;13.304;2023-02-01T04:27:26;16.47;;;3.80;;
6723;SDS011;3399;52.530;13.304;2023-02-01T04:29:51;10.60;;;3.13;;
6723;SDS011;3399;52.530;13.304;2023-02-01T04:32:17;21.83;;;4.17;;
6723;SDS011;3399;52.530;13.304;2023-02-01T04:34:42;8.50;;;3.77;;
6723;SDS011;3399;52.530;13.304;2023-02-01T04:37:08;13.63;;;3.43;;
6723;SDS011;3399;52.530;13.304;2023-02-01T04:39:33;15.30;;;3.47;;
6723;SDS011;3399;52.530;13.304;2023-02-01T04:41:59;13.77;;;3.47;;
6723;SDS011;3399;52.530;13.304;2023-02-01T04:44:24;13.37;;;3.57;;
6723;SDS011;3399;52.530;13.304;2023-02-01T04:46:50;12.53;;;3.00;;
6723;SDS011;3399;52.530;13.304;2023-02-01T04:49:16;18.60;;;3.30;;
6723;SDS011;3399;52.530;13.304;2023-02-01T04:51:41;17.37;;;3.40;;
6723;SDS011;3399;52.530;13.304;2023-02-01T04:54:07;14.67;;;4.20;;
6723;SDS011;3399;52.530;13.304;2023-02-01T04:56:33;13.07;;;4.47;;
6723;SDS011;3399;52.530;13.304;2023-02-01T04:59:01;16.60;;;3.70;;
6723;SDS011;3399;52.530;13.304;2023-02-01T05:01:27;7.03;;;2.93;;
6723;SDS011;3399;52.530;13.304;2023-02-01T05:03:53;15.73;;;3.97;;
6723;SDS011;3399;52.530;13.304;2023-02-01T05:06:19;8.13;;;2.83;;
6723;SDS011;3399;52.530;13.304;2023-02-01T05:08:44;11.50;;;3.80;;
6723;SDS011;3399;52.530;13.304;2023-02-01T05:11:10;15.90;;;2.83;;
6723;SDS011;3399;52.530;13.304;2023-02-01T05:13:54;7.93;;;3.20;;
6723;SDS011;3399;52.530;13.304;2023-02-01T05:16:20;13.83;;;3.27;;
6723;SDS011;3399;52.530;13.304;2023-02-01T05:18:45;14.90;;;3.47;;
6723;SDS011;3399;52.530;13.304;2023-02-01T05:21:11;10.17;;;3.43;;
6723;SDS011;3399;52.530;13.304;2023-02-01T05:23:36;6.60;;;3.27;;
6723;SDS011;3399;52.530;13.304;2023-02-01T05:26:22;14.50;;;3.57;;
6723;SDS011;3399;52.530;13.304;2023-02-01T05:28:47;9.67;;;2.33;;
6723;SDS011;3399;52.530;13.304;2023-02-01T05:31:12;12.67;;;3.53;;
6723;SDS011;3399;52.530;13.304;2023-02-01T05:33:38;14.80;;;3.73;;
6723;SDS011;3399;52.530;13.304;2023-02-01T05:36:03;13.77;;;3.13;;
6723;SDS011;3399;52.530;13.304;2023-02-01T05:38:29;14.80;;;3.73;;
6723;SDS011;3399;52.530;13.304;2023-02-01T05:40:55;15.10;;;2.80;;
6723;SDS011;3399;52.530;13.304;2023-02-01T05:43:21;13.90;;;3.37;;
6723;SDS011;3399;52.530;13.304;2023-02-01T05:45:46;10.30;;;2.93;;
6723;SDS011;3399;52.530;13.304;2023-02-01T05:48:12;10.57;;;3.30;;
6723;SDS011;3399;52.530;13.304;2023-02-01T05:50:37;11.43;;;3.27;;
6723;SDS011;3399;52.530;13.304;2023-02-01T05:53:03;15.93;;;4.03;;
6723;SDS011;3399;52.530;13.304;2023-02-01T05:55:28;13.83;;;3.80;;
6723;SDS011;3399;52.530;13.304;2023-02-01T05:57:54;15.03;;;3.20;;
6723;SDS011;3399;52.530;13.304;2023-02-01T06:00:19;12.93;;;3.90;;
6723;SDS011;3399;52.530;13.304;2023-02-01T06:02:45;11.23;;;3.50;;
6723;SDS011;3399;52.530;13.304;2023-02-01T06:05:10;12.17;;;3.53;;
6723;SDS011;3399;52.530;13.304;2023-02-01T06:07:36;16.37;;;4.83;;
6723;SDS011;3399;52.530;13.304;2023-02-01T06:10:02;17.57;;;4.10;;
6723;SDS011;3399;52.530;13.304;2023-02-01T06:12:28;12.67;;;3.63;;
6723;SDS011;3399;52.530;13.304;2023-02-01T06:14:53;9.67;;;3.23;;
6723;SDS011;3399;52.530;13.304;2023-02-01T06:17:19;14.13;;;2.80;;
6723;SDS011;3399;52.530;13.304;2023-02-01T06:19:44;17.07;;;4.73;;
6723;SDS011;3399;52.530;13.304;2023-02-01T06:22:10;16.07;;;3.73;;
6723;SDS011;3399;52.530;13.304;2023-02-01T06:24:35;10.20;;;2.93;;
6723;SDS011;3399;52.530;13.304;2023-02-01T06:27:01;11.07;;;3.67;;
6723;SDS011;3399;52.530;13.304;2023-02-01T06:29:26;19.33;;;3.97;;
6723;SDS011;3399;52.530;13.304;2023-02-01T06:31:52;10.73;;;3.53;;
6723;SDS011;3399;52.530;13.304;2023-02-01T06:34:18;14.37;;;3.80;;
6723;SDS011;3399;52.530;13.304;2023-02-01T06:36:44;11.10;;;3.33;;
6723;SDS011;3399;52.530;13.304;2023-02-01T06:39:09;10.27;;;3.90;;
6723;SDS011;3399;52.530;13.304;2023-02-01T06:41:35;11.70;;;4.73;;
6723;SDS011;3399;52.530;13.304;2023-02-01T06:44:00;15.27;;;4.50;;
6723;SDS011;3399;52.530;13.304;2023-02-01T06:46:26;14.07;;;4.23;;
6723;SDS011;3399;52.530;13.304;2023-02-01T06:48:51;9.57;;;3.80;;
6723;SDS011;3399;52.530;13.304;2023-02-01T06:51:21;6.20;;;2.30;;
6723;SDS011;3399;52.530;13.304;2023-02-01T06:53:48;14.30;;;3.77;;
6723;SDS011;3399;52.530;13.304;2023-02-01T06:56:14;9.27;;;3.83;;
6723;SDS011;3399;52.530;13.304;2023-02-01T06:58:39;19.47;;;4.53;;
6723;SDS011;3399;52.530;13.304;2023-02-01T07:01:05;16.07;;;3.47;;
6723;SDS011;3399;52.530;13.304;2023-02-01T07:03:31;15.17;;;3.33;;
6723;SDS011;3399;52.530;13.304;2023-02-01T07:05:57;9.70;;;3.40;;
6723;SDS011;3399;52.530;13.304;2023-02-01T07:08:29;8.33;;;2.70;;
6723;SDS011;3399;52.530;13.304;2023-02-01T07:10:56;15.20;;;3.80;;
6723;SDS011;3399;52.530;13.304;2023-02-01T07:13:22;11.70;;;2.87;;
6723;SDS011;3399;52.530;13.304;2023-02-01T07:15:47;10.13;;;3.40;;
6723;SDS011;3399;52.530;13.304;2023-02-01T07:18:16;14.43;;;3.57;;
6723;SDS011;3399;52.530;13.304;2023-02-01T07:20:41;14.63;;;3.00;;
6723;SDS011;3399;52.530;13.304;2023-02-01T07:23:10;21.83;;;3.90;;
6723;SDS011;3399;52.530;13.304;2023-02-01T07:25:36;10.20;;;3.13;;
6723;SDS011;3399;52.530;13.304;2023-02-01T07:28:01;11.70;;;4.40;;
6723;SDS011;3399;52.530;13.304;2023-02-01T07:30:27;13.63;;;2.80;;
6723;SDS011;3399;52.530;13.304;2023-02-01T07:32:53;5.73;;;2.80;;
6723;SDS011;3399;52.530;13.304;2023-02-01T07:35:18;14.23;;;3.33;;
6723;SDS011;3399;52.530;13.304;2023-02-01T07:37:44;11.13;;;3.03;;
6723;SDS011;3399;52.530;13.304;2023-02-01T07:40:09;10.37;;;4.33;;
6723;SDS011;3399;52.530;13.304;2023-02-01T07:42:35;9.87;;;3.10;;
6723;SDS011;3399;52.530;13.304;2023-02-01T07:45:01;12.27;;;4.00;;
6723;SDS011;3399;52.530;13.304;2023-02-01T07:47:27;20.07;;;4.23;;
6723;SDS011;3399;52.530;13.304;2023-02-01T07:49:53;9.40;;;3.27;;
6723;SDS011;3399;52.530;13.304;2023-02-01T07:52:18;14.90;;;3.37;;
6723;SDS011;3399;52.530;13.304;2023-02-01T07:54:44;8.67;;;3.37;;
6723;SDS011;3399;52.530;13.304;2023-02-01T07:57:09;15.93;;;5.53;;
6723;SDS011;3399;52.530;13.304;2023-02-01T07:59:36;11.40;;;3.83;;
6723;SDS011;3399;52.530;13.304;2023-02-01T08:02:22;12.30;;;3.77;;
6723;SDS011;3399;52.530;13.304;2023-02-01T08:04:47;11.57;;;3.80;;
6723;SDS011;3399;52.530;13.304;2023-02-01T08:07:13;16.90;;;4.00;;
6723;SDS011;3399;52.530;13.304;2023-02-01T08:09:38;11.23;;;2.97;;
6723;SDS011;3399;52.530;13.304;2023-02-01T08:12:04;12.83;;;3.97;;
6723;SDS011;3399;52.530;13.304;2023-02-01T08:14:29;9.63;;;3.70;;
6723;SDS011;3399;52.530;13.304;2023-02-01T08:16:55;14.73;;;3.63;;
6723;SDS011;3399;52.530;13.304;2023-02-01T08:19:20;17.30;;;3.80;;
6723;SDS011;3399;52.530;13.304;2023-02-01T08:21:46;10.10;;;3.53;;
6723;SDS011;3399;52.530;13.304;2023-02-01T08:24:13;9.00;;;4.23;;
6723;SDS011;3399;52.530;13.304;2023-02-01T08:26:39;13.77;;;3.43;;
6723;SDS011;3399;52.530;13.304;2023-02-01T08:29:06;12.37;;;4.00;;
6723;SDS011;3399;52.530;13.304;2023-02-01T08:31:32;15.27;;;6.30;;
6723;SDS011;3399;52.530;13.304;2023-02-01T08:33:59;12.73;;;3.70;;
6723;SDS011;3399;52.530;13.304;2023-02-01T08:36:29;7.07;;;4.20;;
6723;SDS011;3399;52.530;13.304;2023-02-01T08:38:55;11.60;;;4.63;;
6723;SDS011;3399;52.530;13.304;2023-02-01T08:41:22;11.90;;;5.87;;
6723;SDS011;3399;52.530;13.304;2023-02-01T08:43:49;6.57;;;3.93;;
6723;SDS011;3399;52.530;13.304;2023-02-01T08:46:16;8.67;;;5.73;;
6723;SDS011;3399;52.530;13.304;2023-02-01T08:48:42;6.37;;;4.50;;
6723;SDS011;3399;52.530;13.304;2023-02-01T08:51:08;6.37;;;4.70;;
6723;SDS011;3399;52.530;13.304;2023-02-01T08:53:36;6.07;;;4.07;;
6723;SDS011;3399;52.530;13.304;2023-02-01T08:56:02;9.03;;;4.77;;
6723;SDS011;3399;52.530;13.304;2023-02-01T08:58:28;7.47;;;3.90;;
6723;SDS011;3399;52.530;13.304;2023-02-01T09:00:54;3.67;;;2.97;;
6723;SDS011;3399;52.530;13.304;2023-02-01T09:03:20;5.93;;;3.70;;
6723;SDS011;3399;52.530;13.304;2023-02-01T09:05:45;9.57;;;5.27;;
6723;SDS011;3399;52.530;13.304;2023-02-01T09:08:11;11.20;;;4.00;;
6723;SDS011;3399;52.530;13.304;2023-02-01T09:10:40;9.57;;;3.57;;
6723;SDS011;3399;52.530;13.304;2023-02-01T09:13:06;3.77;;;2.50;;
6723;SDS011;3399;52.530;13.304;2023-02-01T09:15:32;6.87;;;2.50;;
6723;SDS011;3399;52.530;13.304;2023-02-01T09:17:58;3.60;;;3.30;;
6723;SDS011;3399;52.530;13.304;2023-02-01T09:20:24;3.07;;;2.33;;
6723;SDS011;3399;52.530;13.304;2023-02-01T09:22:50;6.87;;;2.30;;
6723;SDS011;3399;52.530;13.304;2023-02-01T09:25:16;2.80;;;1.60;;
6723;SDS011;3399;52.530;13.304;2023-02-01T09:27:42;3.63;;;1.80;;
6723;SDS011;3399;52.530;13.304;2023-02-01T09:30:08;3.03;;;1.47;;
6723;SDS011;3399;52.530;13.304;2023-02-01T09:32:35;4.67;;;1.60;;
6723;SDS011;3399;52.530;13.304;2023-02-01T09:35:00;1.70;;;1.60;;
6723;SDS011;3399;52.530;13.304;2023-02-01T09:37:26;3.33;;;2.63;;
6723;SDS011;3399;52.530;13.304;2023-02-01T09:39:52;7.03;;;2.20;;
6723;SDS011;3399;52.530;13.304;2023-02-01T09:48:11;5.10;;;1.70;;
6723;SDS011;3399;52.530;13.304;2023-02-01T09:50:41;0.80;;;0.80;;
6723;SDS011;3399;52.530;13.304;2023-02-01T09:55:44;1.70;;;1.00;;
6723;SDS011;3399;52.530;13.304;2023-02-01T09:58:14;2.10;;;1.57;;
6723;SDS011;3399;52.530;13.304;2023-02-01T10:00:49;3.93;;;1.43;;
6723;SDS011;3399;52.530;13.304;2023-02-01T10:03:17;4.00;;;2.00;;
6723;SDS011;3399;52.530;13.304;2023-02-01T10:05:47;3.63;;;2.30;;
6723;SDS011;3399;52.530;13.304;2023-02-01T10:11:56;4.27;;;2.07;;
6723;SDS011;3399;52.530;13.304;2023-02-01T10:20:14;4.03;;;1.90;;
6723;SDS011;3399;52.530;13.304;2023-02-01T10:22:52;4.90;;;2.30;;
6723;SDS011;3399;52.530;13.304;2023-02-01T10:26:00;4.03;;;1.77;;
6723;SDS011;3399;52.530;13.304;2023-02-01T10:28:29;6.80;;;1.90;;
6723;SDS011;3399;52.530;13.304;2023-02-01T10:31:01;1.57;;;1.20;;
6723;SDS011;3399;52.530;13.304;2023-02-01T10:33:33;4.93;;;2.43;;
6723;SDS011;3399;52.530;13.304;2023-02-01T10:38:47;5.43;;;1.73;;
6723;SDS011;3399;52.530;13.304;2023-02-01T10:41:14;7.37;;;2.13;;
6723;SDS011;3399;52.530;13.304;2023-02-01T10:43:41;11.13;;;2.30;;
6723;SDS011;3399;52.530;13.304;2023-02-01T10:46:09;5.33;;;2.10;;
6723;SDS011;3399;52.530;13.304;2023-02-01T10:48:34;1.77;;;1.23;;
6723;SDS011;3399;52.530;13.304;2023-02-01T10:51:06;4.97;;;2.10;;
6723;SDS011;3399;52.530;13.304;2023-02-01T10:53:53;4.47;;;2.03;;
6723;SDS011;3399;52.530;13.304;2023-02-01T10:56:25;12.67;;;2.70;;
6723;SDS011;3399;52.530;13.304;2023-02-01T10:58:52;1.63;;;1.10;;
6723;SDS011;3399;52.530;13.304;2023-02-01T11:01:38;3.13;;;1.77;;
6723;SDS011;3399;52.530;13.304;2023-02-01T11:04:12;5.93;;;1.87;;
6723;SDS011;3399;52.530;13.304;2023-02-01T11:06:41;9.37;;;1.80;;
6723;SDS011;3399;52.530;13.304;2023-02-01T11:09:10;5.00;;;1.60;;
6723;SDS011;3399;52.530;13.304;2023-02-01T11:16:54;8.43;;;2.00;;
6723;SDS011;3399;52.530;13.304;2023-02-01T11:19:26;8.70;;;2.83;;
6723;SDS011;3399;52.530;13.304;2023-02-01T11:21:53;8.00;;;2.47;;
6723;SDS011;3399;52.530;13.304;2023-02-01T11:24:23;7.87;;;1.90;;
6723;SDS011;3399;52.530;13.304;2023-02-01T11:26:54;8.07;;;3.67;;
6723;SDS011;3399;52.530;13.304;2023-02-01T11:29:21;3.67;;;2.03;;
6723;SDS011;3399;52.530;13.304;2023-02-01T11:31:54;8.10;;;2.43;;
6723;SDS011;3399;52.530;13.304;2023-02-01T11:34:24;7.70;;;2.30;;
6723;SDS011;3399;52.530;13.304;2023-02-01T11:36:55;5.33;;;2.00;;
6723;SDS011;3399;52.530;13.304;2023-02-01T11:39:26;4.83;;;1.93;;
6723;SDS011;3399;52.530;13.304;2023-02-01T11:42:14;9.30;;;2.20;;
6723;SDS011;3399;52.530;13.304;2023-02-01T11:44:45;7.03;;;3.10;;
6723;SDS011;3399;52.530;13.304;2023-02-01T11:47:17;10.40;;;2.60;;
6723;SDS011;3399;52.530;13.304;2023-02-01T11:49:48;7.10;;;2.73;;
6723;SDS011;3399;52.530;13.304;2023-02-01T11:52:41;9.83;;;2.73;;
6723;SDS011;3399;52.530;13.304;2023-02-01T11:55:44;6.40;;;2.00;;
6723;SDS011;3399;52.530;13.304;2023-02-01T11:58:37;9.63;;;3.70;;
6723;SDS011;3399;52.530;13.304;2023-02-01T12:06:53;9.20;;;2.57;;
6723;SDS011;3399;52.530;13.304;2023-02-01T12:17:25;5.10;;;1.70;;
6723;SDS011;3399;52.530;13.304;2023-02-01T12:20:22;11.13;;;1.87;;
6723;SDS011;3399;52.530;13.304;2023-02-01T12:29:31;8.83;;;2.87;;
6723;SDS011;3399;52.530;13.304;2023-02-01T12:38:11;4.90;;;2.10;;
6723;SDS011;3399;52.530;13.304;2023-02-01T12:40:57;4.70;;;1.77;;
6723;SDS011;3399;52.530;13.304;2023-02-01T12:43:36;12.00;;;2.60;;
6723;SDS011;3399;52.530;13.304;2023-02-01T12:46:05;4.93;;;1.40;;
6723;SDS011;3399;52.530;13.304;2023-02-01T12:49:03;3.27;;;1.30;;
6723;SDS011;3399;52.530;13.304;2023-02-01T12:51:31;4.97;;;2.53;;
6723;SDS011;3399;52.530;13.304;2023-02-01T12:54:10;8.50;;;2.20;;
6723;SDS011;3399;52.530;13.304;2023-02-01T12:56:51;7.30;;;2.43;;
6723;SDS011;3399;52.530;13.304;2023-02-01T13:02:13;9.13;;;2.30;;
6723;SDS011;3399;52.530;13.304;2023-02-01T13:04:51;4.83;;;1.97;;
6723;SDS011;3399;52.530;13.304;2023-02-01T13:07:25;6.27;;;3.13;;
6723;SDS011;3399;52.530;13.304;2023-02-01T13:09:58;9.70;;;2.20;;
6723;SDS011;3399;52.530;13.304;2023-02-01T13:12:32;5.60;;;1.90;;
6723;SDS011;3399;52.530;13.304;2023-02-01T13:15:09;5.70;;;2.33;;
6723;SDS011;3399;52.530;13.304;2023-02-01T13:17:46;11.00;;;2.87;;
6723;SDS011;3399;52.530;13.304;2023-02-01T13:20:25;8.20;;;3.20;;
6723;SDS011;3399;52.530;13.304;2023-02-01T13:23:33;4.33;;;1.93;;
6723;SDS011;3399;52.530;13.304;2023-02-01T13:25:55;6.67;;;1.90;;
6723;SDS011;3399;52.530;13.304;2023-02-01T13:28:39;5.33;;;1.53;;
6723;SDS011;3399;52.530;13.304;2023-02-01T13:34:06;7.50;;;1.60;;
6723;SDS011;3399;52.530;13.304;2023-02-01T13:37:08;7.07;;;2.00;;
6723;SDS011;3399;52.530;13.304;2023-02-01T13:40:10;3.63;;;1.70;;
6723;SDS011;3399;52.530;13.304;2023-02-01T13:42:57;3.77;;;2.20;;
6723;SDS011;3399;52.530;13.304;2023-02-01T13:45:30;8.60;;;1.13;;
6723;SDS011;3399;52.530;13.304;2023-02-01T13:48:00;9.23;;;2.40;;
6723;SDS011;3399;52.530;13.304;2023-02-01T13:55:47;8.83;;;1.90;;
6723;SDS011;3399;52.530;13.304;2023-02-01T13:58:31;9.03;;;2.80;;
6723;SDS011;3399;52.530;13.304;2023-02-01T14:03:51;7.13;;;1.87;;
6723;SDS011;3399;52.530;13.304;2023-02-01T14:11:34;6.97;;;2.63;;
6723;SDS011;3399;52.530;13.304;2023-02-01T14:19:22;8.87;;;2.07;;
6723;SDS011;3399;52.530;13.304;2023-02-01T14:21:53;10.90;;;3.17;;
6723;SDS011;3399;52.530;13.304;2023-02-01T14:26:57;8.63;;;3.40;;
6723;SDS011;3399;52.530;13.304;2023-02-01T14:29:37;8.10;;;3.20;;
6723;SDS011;3399;52.530;13.304;2023-02-01T14:32:19;8.83;;;3.10;;
6723;SDS011;3399;52.530;13.304;2023-02-01T14:37:23;7.77;;;2.73;;
6723;SDS011;3399;52.530;13.304;2023-02-01T14:42:24;9.63;;;3.37;;
6723;SDS011;3399;52.530;13.304;2023-02-01T14:58:18;12.57;;;2.73;;
6723;SDS011;3399;52.530;13.304;2023-02-01T15:00:55;5.30;;;2.10;;
6723;SDS011;3399;52.530;13.304;2023-02-01T15:06:20;7.10;;;2.37;;
6723;SDS011;3399;52.530;13.304;2023-02-01T15:08:57;7.80;;;2.53;;
6723;SDS011;3399;52.530;13.304;2023-02-01T15:14:20;2.47;;;2.27;;
6723;SDS011;3399;52.530;13.304;2023-02-01T15:16:45;5.17;;;1.60;;
6723;SDS011;3399;52.530;13.304;2023-02-01T15:19:20;4.77;;;1.90;;
6723;SDS011;3399;52.530;13.304;2023-02-01T15:21:48;3.93;;;1.67;;
6723;SDS011;3399;52.530;13.304;2023-02-01T15:26:55;3.57;;;1.53;;
6723;SDS011;3399;52.530;13.304;2023-02-01T15:29:28;6.30;;;1.90;;
6723;SDS011;3399;52.530;13.304;2023-02-01T15:31:57;2.53;;;2.33;;
6723;SDS011;3399;52.530;13.304;2023-02-01T15:34:23;5.97;;;1.30;;
6723;SDS011;3399;52.530;13.304;2023-02-01T15:37:12;2.30;;;1.20;;
6723;SDS011;3399;52.530;13.304;2023-02-01T15:40:02;2.30;;;1.03;;
6723;SDS011;3399;52.530;13.304;2023-02-01T15:42:35;2.33;;;1.53;;
6723;SDS011;3399;52.530;13.304;2023-02-01T15:45:04;0.67;;;0.67;;
6723;SDS011;3399;52.530;13.304;2023-02-01T15:47:40;3.87;;;0.77;;
6723;SDS011;3399;52.530;13.304;2023-02-01T15:50:12;4.37;;;1.37;;
6723;SDS011;3399;52.530;13.304;2023-02-01T15:52:40;1.60;;;1.50;;
6723;SDS011;3399;52.530;13.304;2023-02-01T15:55:24;2.60;;;1.60;;
6723;SDS011;3399;52.530;13.304;2023-02-01T15:58:18;1.03;;;1.03;;
6723;SDS011;3399;52.530;13.304;2023-02-01T16:00:50;4.47;;;1.63;;
6723;SDS011;3399;52.530;13.304;2023-02-01T16:06:02;2.83;;;0.80;;
6723;SDS011;3399;52.530;13.304;2023-02-01T16:08:30;1.20;;;1.10;;
6723;SDS011;3399;52.530;13.304;2023-02-01T16:11:01;1.27;;;1.17;;
6723;SDS011;3399;52.530;13.304;2023-02-01T16:13:45;0.70;;;0.70;;
6723;SDS011;3399;52.530;13.304;2023-02-01T16:16:10;0.60;;;0.60;;
6723;SDS011;3399;52.530;13.304;2023-02-01T16:18:38;2.67;;;0.97;;
6723;SDS011;3399;52.530;13.304;2023-02-01T16:21:05;1.20;;;1.20;;
6723;SDS011;3399;52.530;13.304;2023-02-01T16:23:32;1.40;;;0.90;;
6723;SDS011;3399;52.530;13.304;2023-02-01T16:25:58;1.23;;;1.00;;
6723;SDS011;3399;52.530;13.304;2023-02-01T16:28:23;3.07;;;1.50;;
6723;SDS011;3399;52.530;13.304;2023-02-01T16:30:49;2.00;;;1.23;;
6723;SDS011;3399;52.530;13.304;2023-02-01T16:33:16;2.73;;;2.00;;
6723;SDS011;3399;52.530;13.304;2023-02-01T16:35:46;1.30;;;1.23;;
6723;SDS011;3399;52.530;13.304;2023-02-01T16:38:13;0.90;;;0.90;;
6723;SDS011;3399;52.530;13.304;2023-02-01T16:40:43;1.23;;;1.23;;
6723;SDS011;3399;52.530;13.304;2023-02-01T16:43:13;1.13;;;1.13;;
6723;SDS011;3399;52.530;13.304;2023-02-01T16:45:43;1.07;;;1.07;;
6723;SDS011;3399;52.530;13.304;2023-02-01T16:48:23;1.60;;;1.50;;
6723;SDS011;3399;52.530;13.304;2023-02-01T16:50:52;1.97;;;1.80;;
6723;SDS011;3399;52.530;13.304;2023-02-01T16:53:23;1.50;;;1.40;;
6723;SDS011;3399;52.530;13.304;2023-02-01T16:55:49;1.87;;;1.70;;
6723;SDS011;3399;52.530;13.304;2023-02-01T16:58:17;1.93;;;1.27;;
6723;SDS011;3399;52.530;13.304;2023-02-01T17:00:43;2.43;;;1.47;;
6723;SDS011;3399;52.530;13.304;2023-02-01T17:03:10;3.33;;;1.97;;
6723;SDS011;3399;52.530;13.304;2023-02-01T17:05:41;0.73;;;0.73;;
6723;SDS011;3399;52.530;13.304;2023-02-01T17:08:09;1.97;;;1.50;;
6723;SDS011;3399;52.530;13.304;2023-02-01T17:10:37;2.00;;;1.87;;
6723;SDS011;3399;52.530;13.304;2023-02-01T17:13:02;2.80;;;1.80;;